Cornholme, United Kingdom
Current Conditions -  °F | °C
As of 6:50 AM on Friday 28 Nov 2014 (Local Time) from EGNM Reporting Station
Moderate Fog Moderate Fog  
Wind Chill: 41°   Ceiling: Unl
Heat Index: 45°   Visibility: 0.06mi
Dew Point: 45°   Wind: 7mph
Humidity: 100%   Direction: 70°ENE
Pressure: 29.65"   Gusts: NA
Location:  53.73°N, 2.14°W
Report Text: EGNM 280650Z 07006KT 0100 R32/0250 FG VV/// 07/07 Q1004
Loading
Personal Weather Stations






























Interactive Weather Map New forecast layout! Learn more

10-Day Weather Forecast

Advertisements
Track Severe Weather on mobile